sensor_id;sensor_type;location;lat;lon;timestamp;temperature;humidity
43581;DHT22;29175;51.030;4.606;2022-08-01T00:02:29;24.10;99.90
43581;DHT22;29175;51.030;4.606;2022-08-01T00:04:58;24.10;99.90
43581;DHT22;29175;51.030;4.606;2022-08-01T00:07:28;24.00;99.90
43581;DHT22;29175;51.030;4.606;2022-08-01T00:09:54;24.00;99.90
43581;DHT22;29175;51.030;4.606;2022-08-01T00:12:20;24.00;99.90
43581;DHT22;29175;51.030;4.606;2022-08-01T00:14:49;23.90;99.90
43581;DHT22;29175;51.030;4.606;2022-08-01T00:17:18;23.80;99.90
43581;DHT22;29175;51.030;4.606;2022-08-01T00:20:03;23.80;99.90
43581;DHT22;29175;51.030;4.606;2022-08-01T00:22:32;23.80;99.90
43581;DHT22;29175;51.030;4.606;2022-08-01T00:24:59;23.70;99.90
43581;DHT22;29175;51.030;4.606;2022-08-01T00:27:26;23.80;99.90
43581;DHT22;29175;51.030;4.606;2022-08-01T00:29:54;23.70;99.90
43581;DHT22;29175;51.030;4.606;2022-08-01T00:32:21;23.70;99.90
43581;DHT22;29175;51.030;4.606;2022-08-01T00:34:48;23.70;99.90
43581;DHT22;29175;51.030;4.606;2022-08-01T00:37:14;23.60;99.90
43581;DHT22;29175;51.030;4.606;2022-08-01T00:39:41;23.70;99.90
43581;DHT22;29175;51.030;4.606;2022-08-01T00:42:10;23.70;99.90
43581;DHT22;29175;51.030;4.606;2022-08-01T00:44:37;23.70;99.90
43581;DHT22;29175;51.030;4.606;2022-08-01T00:47:06;23.60;99.90
43581;DHT22;29175;51.030;4.606;2022-08-01T00:49:36;23.60;99.90
43581;DHT22;29175;51.030;4.606;2022-08-01T00:52:05;23.60;99.90
43581;DHT22;29175;51.030;4.606;2022-08-01T00:54:31;23.60;99.90
43581;DHT22;29175;51.030;4.606;2022-08-01T00:56:59;23.70;99.90
43581;DHT22;29175;51.030;4.606;2022-08-01T00:59:28;23.60;99.90
43581;DHT22;29175;51.030;4.606;2022-08-01T01:01:57;23.70;99.90
43581;DHT22;29175;51.030;4.606;2022-08-01T01:04:23;23.60;99.90
43581;DHT22;29175;51.030;4.606;2022-08-01T01:07:05;23.50;99.90
43581;DHT22;29175;51.030;4.606;2022-08-01T01:12:40;23.60;99.90
43581;DHT22;29175;51.030;4.606;2022-08-01T01:15:10;23.60;99.90
43581;DHT22;29175;51.030;4.606;2022-08-01T01:17:57;23.40;99.90
43581;DHT22;29175;51.030;4.606;2022-08-01T01:20:42;23.60;99.90
43581;DHT22;29175;51.030;4.606;2022-08-01T01:28:59;23.60;99.90
43581;DHT22;29175;51.030;4.606;2022-08-01T01:31:27;23.60;99.90
43581;DHT22;29175;51.030;4.606;2022-08-01T01:33:58;23.60;99.90
43581;DHT22;29175;51.030;4.606;2022-08-01T01:36:27;23.60;99.90
43581;DHT22;29175;51.030;4.606;2022-08-01T01:38:55;23.40;99.90
43581;DHT22;29175;51.030;4.606;2022-08-01T01:41:24;23.40;99.90
43581;DHT22;29175;51.030;4.606;2022-08-01T01:43:54;23.30;99.90
43581;DHT22;29175;51.030;4.606;2022-08-01T01:46:24;23.50;99.90
43581;DHT22;29175;51.030;4.606;2022-08-01T01:48:55;23.50;99.90
43581;DHT22;29175;51.030;4.606;2022-08-01T01:51:25;23.50;99.90
43581;DHT22;29175;51.030;4.606;2022-08-01T01:53:55;23.40;99.90
43581;DHT22;29175;51.030;4.606;2022-08-01T01:56:24;23.50;99.90
43581;DHT22;29175;51.030;4.606;2022-08-01T01:58:57;23.50;99.90
43581;DHT22;29175;51.030;4.606;2022-08-01T02:01:30;23.70;99.90
43581;DHT22;29175;51.030;4.606;2022-08-01T02:03:58;23.60;99.90
43581;DHT22;29175;51.030;4.606;2022-08-01T02:06:31;23.50;99.90
43581;DHT22;29175;51.030;4.606;2022-08-01T02:09:01;23.60;99.90
43581;DHT22;29175;51.030;4.606;2022-08-01T02:11:29;23.60;99.90
43581;DHT22;29175;51.030;4.606;2022-08-01T02:14:00;23.70;99.90
43581;DHT22;29175;51.030;4.606;2022-08-01T02:16:39;23.70;99.90
43581;DHT22;29175;51.030;4.606;2022-08-01T02:19:08;23.80;99.90
43581;DHT22;29175;51.030;4.606;2022-08-01T02:24:24;23.70;99.90
43581;DHT22;29175;51.030;4.606;2022-08-01T02:26:59;23.50;99.90
43581;DHT22;29175;51.030;4.606;2022-08-01T02:29:36;23.50;99.90
43581;DHT22;29175;51.030;4.606;2022-08-01T02:32:05;23.60;99.90
43581;DHT22;29175;51.030;4.606;2022-08-01T02:34:34;23.40;99.90
43581;DHT22;29175;51.030;4.606;2022-08-01T02:37:04;23.40;99.90
43581;DHT22;29175;51.030;4.606;2022-08-01T02:39:38;23.30;99.90
43581;DHT22;29175;51.030;4.606;2022-08-01T02:42:08;23.30;99.90
43581;DHT22;29175;51.030;4.606;2022-08-01T02:44:42;23.40;99.90
43581;DHT22;29175;51.030;4.606;2022-08-01T02:47:10;23.40;99.90
43581;DHT22;29175;51.030;4.606;2022-08-01T02:49:43;23.40;99.90
43581;DHT22;29175;51.030;4.606;2022-08-01T02:52:13;23.40;99.90
43581;DHT22;29175;51.030;4.606;2022-08-01T02:54:41;23.40;99.90
43581;DHT22;29175;51.030;4.606;2022-08-01T02:57:12;23.50;99.90
43581;DHT22;29175;51.030;4.606;2022-08-01T02:59:41;23.30;99.90
43581;DHT22;29175;51.030;4.606;2022-08-01T03:02:08;23.40;99.90
43581;DHT22;29175;51.030;4.606;2022-08-01T03:04:38;23.50;99.90
43581;DHT22;29175;51.030;4.606;2022-08-01T03:07:08;23.70;99.90
43581;DHT22;29175;51.030;4.606;2022-08-01T03:09:38;23.50;99.90
43581;DHT22;29175;51.030;4.606;2022-08-01T03:12:13;23.30;99.90
43581;DHT22;29175;51.030;4.606;2022-08-01T03:14:44;23.10;99.90
43581;DHT22;29175;51.030;4.606;2022-08-01T03:17:12;23.10;99.90
43581;DHT22;29175;51.030;4.606;2022-08-01T03:19:39;23.10;99.90
43581;DHT22;29175;51.030;4.606;2022-08-01T03:22:08;23.10;99.90
43581;DHT22;29175;51.030;4.606;2022-08-01T03:24:39;23.10;99.90
43581;DHT22;29175;51.030;4.606;2022-08-01T03:27:07;23.00;99.90
43581;DHT22;29175;51.030;4.606;2022-08-01T03:29:36;23.00;99.90
43581;DHT22;29175;51.030;4.606;2022-08-01T03:32:03;23.00;99.90
43581;DHT22;29175;51.030;4.606;2022-08-01T03:34:29;22.90;99.90
43581;DHT22;29175;51.030;4.606;2022-08-01T03:37:12;22.90;99.90
43581;DHT22;29175;51.030;4.606;2022-08-01T03:42:32;22.80;99.90
43581;DHT22;29175;51.030;4.606;2022-08-01T03:45:03;22.50;99.90
43581;DHT22;29175;51.030;4.606;2022-08-01T03:47:33;22.60;99.90
43581;DHT22;29175;51.030;4.606;2022-08-01T03:50:07;22.60;99.90
43581;DHT22;29175;51.030;4.606;2022-08-01T03:52:38;22.70;99.90
43581;DHT22;29175;51.030;4.606;2022-08-01T03:55:12;22.90;99.90
43581;DHT22;29175;51.030;4.606;2022-08-01T03:57:42;22.90;99.90
43581;DHT22;29175;51.030;4.606;2022-08-01T04:00:09;23.00;99.90
43581;DHT22;29175;51.030;4.606;2022-08-01T04:02:37;23.00;99.90
43581;DHT22;29175;51.030;4.606;2022-08-01T04:05:04;23.00;99.90
43581;DHT22;29175;51.030;4.606;2022-08-01T04:07:32;23.00;99.90
43581;DHT22;29175;51.030;4.606;2022-08-01T04:10:01;23.10;99.90
43581;DHT22;29175;51.030;4.606;2022-08-01T04:12:30;23.10;99.90
43581;DHT22;29175;51.030;4.606;2022-08-01T04:15:02;23.20;99.90
43581;DHT22;29175;51.030;4.606;2022-08-01T04:17:29;23.20;99.90
43581;DHT22;29175;51.030;4.606;2022-08-01T04:19:58;23.20;99.90
43581;DHT22;29175;51.030;4.606;2022-08-01T04:22:27;23.10;99.90
43581;DHT22;29175;51.030;4.606;2022-08-01T04:24:57;23.10;99.90
43581;DHT22;29175;51.030;4.606;2022-08-01T04:27:31;23.00;99.90
43581;DHT22;29175;51.030;4.606;2022-08-01T04:30:01;23.10;99.90
43581;DHT22;29175;51.030;4.606;2022-08-01T04:32:31;23.10;99.90
43581;DHT22;29175;51.030;4.606;2022-08-01T04:35:02;23.10;99.90
43581;DHT22;29175;51.030;4.606;2022-08-01T04:37:29;23.10;99.90
43581;DHT22;29175;51.030;4.606;2022-08-01T04:39:58;23.10;99.90
43581;DHT22;29175;51.030;4.606;2022-08-01T04:42:28;23.10;99.90
43581;DHT22;29175;51.030;4.606;2022-08-01T04:44:56;23.00;99.90
43581;DHT22;29175;51.030;4.606;2022-08-01T04:47:22;23.00;99.90
43581;DHT22;29175;51.030;4.606;2022-08-01T04:49:53;23.00;99.90
43581;DHT22;29175;51.030;4.606;2022-08-01T04:52:22;23.10;99.90
43581;DHT22;29175;51.030;4.606;2022-08-01T04:54:51;23.20;99.90
43581;DHT22;29175;51.030;4.606;2022-08-01T04:57:20;23.20;99.90
43581;DHT22;29175;51.030;4.606;2022-08-01T04:59:49;23.10;99.90
43581;DHT22;29175;51.030;4.606;2022-08-01T05:02:21;23.10;99.90
43581;DHT22;29175;51.030;4.606;2022-08-01T05:04:48;23.30;99.90
43581;DHT22;29175;51.030;4.606;2022-08-01T05:07:16;23.40;99.90
43581;DHT22;29175;51.030;4.606;2022-08-01T05:09:44;23.40;99.90
43581;DHT22;29175;51.030;4.606;2022-08-01T05:12:12;23.40;99.90
43581;DHT22;29175;51.030;4.606;2022-08-01T05:14:40;23.40;99.90
43581;DHT22;29175;51.030;4.606;2022-08-01T05:17:08;23.30;99.90
43581;DHT22;29175;51.030;4.606;2022-08-01T05:19:38;23.20;99.90
43581;DHT22;29175;51.030;4.606;2022-08-01T05:22:08;23.20;99.90
43581;DHT22;29175;51.030;4.606;2022-08-01T05:24:38;23.30;99.90
43581;DHT22;29175;51.030;4.606;2022-08-01T05:27:05;23.30;99.90
43581;DHT22;29175;51.030;4.606;2022-08-01T05:29:36;23.30;99.90
43581;DHT22;29175;51.030;4.606;2022-08-01T05:32:02;23.40;99.90
43581;DHT22;29175;51.030;4.606;2022-08-01T05:34:29;23.40;99.90
43581;DHT22;29175;51.030;4.606;2022-08-01T05:36:56;23.40;99.90
43581;DHT22;29175;51.030;4.606;2022-08-01T05:39:25;23.50;99.90
43581;DHT22;29175;51.030;4.606;2022-08-01T05:41:57;23.50;99.90
43581;DHT22;29175;51.030;4.606;2022-08-01T05:44:23;23.40;99.90
43581;DHT22;29175;51.030;4.606;2022-08-01T05:46:51;23.60;99.90
43581;DHT22;29175;51.030;4.606;2022-08-01T05:49:17;23.70;99.90
43581;DHT22;29175;51.030;4.606;2022-08-01T05:51:46;23.70;99.90
43581;DHT22;29175;51.030;4.606;2022-08-01T05:54:15;23.70;99.90
43581;DHT22;29175;51.030;4.606;2022-08-01T05:56:41;23.90;99.90
43581;DHT22;29175;51.030;4.606;2022-08-01T05:59:09;24.00;99.90
43581;DHT22;29175;51.030;4.606;2022-08-01T06:01:37;24.00;99.90
43581;DHT22;29175;51.030;4.606;2022-08-01T06:04:02;24.00;99.90
43581;DHT22;29175;51.030;4.606;2022-08-01T06:06:31;24.00;99.90
43581;DHT22;29175;51.030;4.606;2022-08-01T06:09:03;24.00;99.90
43581;DHT22;29175;51.030;4.606;2022-08-01T06:11:33;23.80;99.90
43581;DHT22;29175;51.030;4.606;2022-08-01T06:13:59;23.80;99.90
43581;DHT22;29175;51.030;4.606;2022-08-01T06:16:27;23.70;99.90
43581;DHT22;29175;51.030;4.606;2022-08-01T06:19:03;23.90;99.90
43581;DHT22;29175;51.030;4.606;2022-08-01T06:21:32;24.00;99.90
43581;DHT22;29175;51.030;4.606;2022-08-01T06:24:01;24.10;99.90
43581;DHT22;29175;51.030;4.606;2022-08-01T06:26:26;24.30;99.90
43581;DHT22;29175;51.030;4.606;2022-08-01T06:28:57;24.40;99.90
43581;DHT22;29175;51.030;4.606;2022-08-01T06:31:26;24.60;99.90
43581;DHT22;29175;51.030;4.606;2022-08-01T06:33:52;24.50;99.90
43581;DHT22;29175;51.030;4.606;2022-08-01T06:36:23;24.60;99.90
43581;DHT22;29175;51.030;4.606;2022-08-01T06:38:52;24.70;99.90
43581;DHT22;29175;51.030;4.606;2022-08-01T06:41:19;24.80;99.90
43581;DHT22;29175;51.030;4.606;2022-08-01T06:43:48;24.90;99.90
43581;DHT22;29175;51.030;4.606;2022-08-01T06:46:13;25.10;99.90
43581;DHT22;29175;51.030;4.606;2022-08-01T06:48:41;25.50;99.90
43581;DHT22;29175;51.030;4.606;2022-08-01T06:51:10;25.90;99.90
43581;DHT22;29175;51.030;4.606;2022-08-01T06:53:39;26.60;99.90
43581;DHT22;29175;51.030;4.606;2022-08-01T06:56:05;27.30;99.80
43581;DHT22;29175;51.030;4.606;2022-08-01T06:58:32;27.70;98.20
43581;DHT22;29175;51.030;4.606;2022-08-01T07:01:01;27.60;97.90
43581;DHT22;29175;51.030;4.606;2022-08-01T07:03:29;27.30;98.40
43581;DHT22;29175;51.030;4.606;2022-08-01T07:05:58;27.20;97.40
43581;DHT22;29175;51.030;4.606;2022-08-01T07:08:25;26.40;98.30
43581;DHT22;29175;51.030;4.606;2022-08-01T07:10:51;26.00;99.90
43581;DHT22;29175;51.030;4.606;2022-08-01T07:13:19;26.10;99.90
43581;DHT22;29175;51.030;4.606;2022-08-01T07:15:51;26.30;99.80
43581;DHT22;29175;51.030;4.606;2022-08-01T07:18:20;26.40;99.20
43581;DHT22;29175;51.030;4.606;2022-08-01T07:20:46;26.30;98.90
43581;DHT22;29175;51.030;4.606;2022-08-01T07:23:14;26.40;99.20
43581;DHT22;29175;51.030;4.606;2022-08-01T07:25:46;26.40;98.30
43581;DHT22;29175;51.030;4.606;2022-08-01T07:28:12;26.80;98.90
43581;DHT22;29175;51.030;4.606;2022-08-01T07:30:39;27.30;97.70
43581;DHT22;29175;51.030;4.606;2022-08-01T07:33:10;27.50;97.30
43581;DHT22;29175;51.030;4.606;2022-08-01T07:35:36;27.70;96.70
43581;DHT22;29175;51.030;4.606;2022-08-01T07:38:07;27.80;95.80
43581;DHT22;29175;51.030;4.606;2022-08-01T07:40:34;27.60;96.10
43581;DHT22;29175;51.030;4.606;2022-08-01T07:43:00;27.50;96.20
43581;DHT22;29175;51.030;4.606;2022-08-01T07:45:43;27.00;96.30
43581;DHT22;29175;51.030;4.606;2022-08-01T07:48:11;26.70;96.60
43581;DHT22;29175;51.030;4.606;2022-08-01T07:50:39;26.40;97.30
43581;DHT22;29175;51.030;4.606;2022-08-01T07:53:05;26.50;96.90
43581;DHT22;29175;51.030;4.606;2022-08-01T07:55:33;27.00;97.20
43581;DHT22;29175;51.030;4.606;2022-08-01T07:57:58;27.40;96.40
43581;DHT22;29175;51.030;4.606;2022-08-01T08:00:30;28.10;95.20
43581;DHT22;29175;51.030;4.606;2022-08-01T08:02:58;28.60;93.90
43581;DHT22;29175;51.030;4.606;2022-08-01T08:05:27;28.40;94.00
43581;DHT22;29175;51.030;4.606;2022-08-01T08:07:54;28.70;93.40
43581;DHT22;29175;51.030;4.606;2022-08-01T08:10:24;28.70;93.20
43581;DHT22;29175;51.030;4.606;2022-08-01T08:12:51;28.80;92.90
43581;DHT22;29175;51.030;4.606;2022-08-01T08:15:18;28.50;93.60
43581;DHT22;29175;51.030;4.606;2022-08-01T08:17:47;28.80;93.00
43581;DHT22;29175;51.030;4.606;2022-08-01T08:20:14;29.30;92.70
43581;DHT22;29175;51.030;4.606;2022-08-01T08:22:43;30.90;91.70
43581;DHT22;29175;51.030;4.606;2022-08-01T08:25:11;31.60;90.10
43581;DHT22;29175;51.030;4.606;2022-08-01T08:27:38;31.70;89.70
43581;DHT22;29175;51.030;4.606;2022-08-01T08:30:05;31.20;90.00
43581;DHT22;29175;51.030;4.606;2022-08-01T08:32:36;30.70;90.50
43581;DHT22;29175;51.030;4.606;2022-08-01T08:35:03;30.30;90.90
43581;DHT22;29175;51.030;4.606;2022-08-01T08:37:33;29.80;91.00
43581;DHT22;29175;51.030;4.606;2022-08-01T08:40:03;30.60;90.40
43581;DHT22;29175;51.030;4.606;2022-08-01T08:42:33;32.00;89.10
43581;DHT22;29175;51.030;4.606;2022-08-01T08:45:00;32.20;85.50
43581;DHT22;29175;51.030;4.606;2022-08-01T08:47:28;31.60;87.40
43581;DHT22;29175;51.030;4.606;2022-08-01T08:49:57;30.40;88.10
43581;DHT22;29175;51.030;4.606;2022-08-01T08:52:26;29.20;90.10
43581;DHT22;29175;51.030;4.606;2022-08-01T08:54:56;29.20;90.80
43581;DHT22;29175;51.030;4.606;2022-08-01T08:57:23;29.60;90.00
43581;DHT22;29175;51.030;4.606;2022-08-01T08:59:51;29.60;90.00
43581;DHT22;29175;51.030;4.606;2022-08-01T09:02:21;29.40;91.00
43581;DHT22;29175;51.030;4.606;2022-08-01T09:04:48;29.90;90.20
43581;DHT22;29175;51.030;4.606;2022-08-01T09:07:14;30.10;90.20
43581;DHT22;29175;51.030;4.606;2022-08-01T09:09:40;30.40;88.20
43581;DHT22;29175;51.030;4.606;2022-08-01T09:12:08;30.30;89.60
43581;DHT22;29175;51.030;4.606;2022-08-01T09:14:47;31.40;89.10
43581;DHT22;29175;51.030;4.606;2022-08-01T09:17:14;32.50;86.30
43581;DHT22;29175;51.030;4.606;2022-08-01T09:19:47;33.60;83.70
43581;DHT22;29175;51.030;4.606;2022-08-01T09:22:21;35.30;81.50
43581;DHT22;29175;51.030;4.606;2022-08-01T09:27:30;37.60;77.50
43581;DHT22;29175;51.030;4.606;2022-08-01T09:30:17;38.20;75.90
43581;DHT22;29175;51.030;4.606;2022-08-01T09:33:02;39.60;74.40
43581;DHT22;29175;51.030;4.606;2022-08-01T09:35:31;40.50;72.70
43581;DHT22;29175;51.030;4.606;2022-08-01T09:38:25;40.40;70.40
43581;DHT22;29175;51.030;4.606;2022-08-01T09:40:59;39.20;70.50
43581;DHT22;29175;51.030;4.606;2022-08-01T09:43:28;38.10;73.30
43581;DHT22;29175;51.030;4.606;2022-08-01T09:45:55;37.00;75.20
43581;DHT22;29175;51.030;4.606;2022-08-01T09:48:22;37.20;75.60
43581;DHT22;29175;51.030;4.606;2022-08-01T09:50:51;36.70;74.50
43581;DHT22;29175;51.030;4.606;2022-08-01T09:53:19;35.80;76.70
43581;DHT22;29175;51.030;4.606;2022-08-01T09:55:45;34.50;78.20
43581;DHT22;29175;51.030;4.606;2022-08-01T09:58:11;33.40;80.30
43581;DHT22;29175;51.030;4.606;2022-08-01T10:00:38;32.80;81.90
43581;DHT22;29175;51.030;4.606;2022-08-01T10:03:23;34.20;80.30
43581;DHT22;29175;51.030;4.606;2022-08-01T10:05:49;35.30;77.70
43581;DHT22;29175;51.030;4.606;2022-08-01T10:08:17;36.20;77.80
43581;DHT22;29175;51.030;4.606;2022-08-01T10:11:12;37.90;75.30
43581;DHT22;29175;51.030;4.606;2022-08-01T10:13:39;39.70;71.80
43581;DHT22;29175;51.030;4.606;2022-08-01T10:16:05;40.00;70.40
43581;DHT22;29175;51.030;4.606;2022-08-01T10:18:35;39.30;71.60
43581;DHT22;29175;51.030;4.606;2022-08-01T10:21:03;39.20;71.30
43581;DHT22;29175;51.030;4.606;2022-08-01T10:23:33;38.00;71.60
43581;DHT22;29175;51.030;4.606;2022-08-01T10:26:00;36.40;73.90
43581;DHT22;29175;51.030;4.606;2022-08-01T10:28:29;37.20;74.40
43581;DHT22;29175;51.030;4.606;2022-08-01T10:30:57;38.20;72.60
43581;DHT22;29175;51.030;4.606;2022-08-01T10:33:25;38.90;70.80
43581;DHT22;29175;51.030;4.606;2022-08-01T10:35:52;39.70;68.00
43581;DHT22;29175;51.030;4.606;2022-08-01T10:38:19;39.00;69.30
43581;DHT22;29175;51.030;4.606;2022-08-01T10:40:45;38.80;70.80
43581;DHT22;29175;51.030;4.606;2022-08-01T10:43:12;38.50;70.80
43581;DHT22;29175;51.030;4.606;2022-08-01T10:45:42;38.10;71.50
43581;DHT22;29175;51.030;4.606;2022-08-01T10:48:20;37.40;72.50
43581;DHT22;29175;51.030;4.606;2022-08-01T10:50:53;37.20;73.20
43581;DHT22;29175;51.030;4.606;2022-08-01T10:53:23;37.90;72.10
43581;DHT22;29175;51.030;4.606;2022-08-01T10:56:03;37.50;72.30
43581;DHT22;29175;51.030;4.606;2022-08-01T10:58:34;38.30;72.40
43581;DHT22;29175;51.030;4.606;2022-08-01T11:04:01;37.90;71.10
43581;DHT22;29175;51.030;4.606;2022-08-01T11:09:06;37.30;72.70
43581;DHT22;29175;51.030;4.606;2022-08-01T11:20:13;39.30;68.80
43581;DHT22;29175;51.030;4.606;2022-08-01T11:28:18;35.20;72.90
43581;DHT22;29175;51.030;4.606;2022-08-01T11:30:52;34.50;75.40
43581;DHT22;29175;51.030;4.606;2022-08-01T11:38:40;34.40;75.60
43581;DHT22;29175;51.030;4.606;2022-08-01T11:52:19;34.00;73.90
43581;DHT22;29175;51.030;4.606;2022-08-01T11:55:05;34.40;73.30
43581;DHT22;29175;51.030;4.606;2022-08-01T11:57:32;35.00;72.50
43581;DHT22;29175;51.030;4.606;2022-08-01T12:00:12;34.40;74.10
43581;DHT22;29175;51.030;4.606;2022-08-01T12:02:40;34.10;72.80
43581;DHT22;29175;51.030;4.606;2022-08-01T12:05:11;34.00;74.20
43581;DHT22;29175;51.030;4.606;2022-08-01T12:07:42;34.20;70.60
43581;DHT22;29175;51.030;4.606;2022-08-01T12:10:11;34.00;72.70
43581;DHT22;29175;51.030;4.606;2022-08-01T12:12:50;33.60;73.20
43581;DHT22;29175;51.030;4.606;2022-08-01T12:15:18;33.70;72.70
43581;DHT22;29175;51.030;4.606;2022-08-01T12:17:50;33.20;74.20
43581;DHT22;29175;51.030;4.606;2022-08-01T12:20:22;33.50;72.40
43581;DHT22;29175;51.030;4.606;2022-08-01T12:22:56;32.40;74.00
43581;DHT22;29175;51.030;4.606;2022-08-01T12:25:23;32.30;73.40
43581;DHT22;29175;51.030;4.606;2022-08-01T12:27:49;32.70;73.40
43581;DHT22;29175;51.030;4.606;2022-08-01T12:30:18;32.20;74.40
43581;DHT22;29175;51.030;4.606;2022-08-01T12:32:46;31.60;76.30
43581;DHT22;29175;51.030;4.606;2022-08-01T12:35:20;31.40;75.30
43581;DHT22;29175;51.030;4.606;2022-08-01T12:37:56;31.30;75.80
43581;DHT22;29175;51.030;4.606;2022-08-01T12:40:27;31.50;75.10
43581;DHT22;29175;51.030;4.606;2022-08-01T12:43:05;31.40;73.50
43581;DHT22;29175;51.030;4.606;2022-08-01T12:45:38;31.30;75.50
43581;DHT22;29175;51.030;4.606;2022-08-01T12:48:12;31.40;75.50
43581;DHT22;29175;51.030;4.606;2022-08-01T12:50:45;31.50;75.90
43581;DHT22;29175;51.030;4.606;2022-08-01T12:53:13;31.90;75.70
43581;DHT22;29175;51.030;4.606;2022-08-01T12:55:48;31.90;73.90
43581;DHT22;29175;51.030;4.606;2022-08-01T12:58:19;32.00;74.70
43581;DHT22;29175;51.030;4.606;2022-08-01T13:00:49;32.20;74.70
43581;DHT22;29175;51.030;4.606;2022-08-01T13:03:18;31.50;74.10
43581;DHT22;29175;51.030;4.606;2022-08-01T13:08:15;30.90;72.70
43581;DHT22;29175;51.030;4.606;2022-08-01T13:10:44;30.30;76.50
43581;DHT22;29175;51.030;4.606;2022-08-01T13:13:13;30.50;75.90
43581;DHT22;29175;51.030;4.606;2022-08-01T13:15:43;31.00;76.10
43581;DHT22;29175;51.030;4.606;2022-08-01T13:18:29;31.30;75.00
43581;DHT22;29175;51.030;4.606;2022-08-01T13:23:39;31.40;71.10
43581;DHT22;29175;51.030;4.606;2022-08-01T13:26:06;31.70;71.40
43581;DHT22;29175;51.030;4.606;2022-08-01T13:28:34;31.50;71.70
43581;DHT22;29175;51.030;4.606;2022-08-01T13:31:07;31.30;70.80
43581;DHT22;29175;51.030;4.606;2022-08-01T13:33:43;31.40;71.40
43581;DHT22;29175;51.030;4.606;2022-08-01T13:36:09;31.50;69.80
43581;DHT22;29175;51.030;4.606;2022-08-01T13:38:38;31.90;69.00
43581;DHT22;29175;51.030;4.606;2022-08-01T13:41:26;31.70;67.90
43581;DHT22;29175;51.030;4.606;2022-08-01T13:43:53;31.00;69.60
43581;DHT22;29175;51.030;4.606;2022-08-01T13:46:20;30.80;72.20
43581;DHT22;29175;51.030;4.606;2022-08-01T13:48:51;30.70;70.30
43581;DHT22;29175;51.030;4.606;2022-08-01T13:51:20;30.50;72.00
43581;DHT22;29175;51.030;4.606;2022-08-01T13:53:48;30.60;69.70
43581;DHT22;29175;51.030;4.606;2022-08-01T13:56:16;30.60;70.70
43581;DHT22;29175;51.030;4.606;2022-08-01T13:58:46;30.50;72.50
43581;DHT22;29175;51.030;4.606;2022-08-01T14:01:17;30.00;74.50
43581;DHT22;29175;51.030;4.606;2022-08-01T14:03:46;29.90;76.50
43581;DHT22;29175;51.030;4.606;2022-08-01T14:06:15;30.00;75.60
43581;DHT22;29175;51.030;4.606;2022-08-01T14:08:43;30.40;74.80
43581;DHT22;29175;51.030;4.606;2022-08-01T14:11:12;30.20;73.80
43581;DHT22;29175;51.030;4.606;2022-08-01T14:13:38;30.00;73.90
43581;DHT22;29175;51.030;4.606;2022-08-01T14:16:10;29.80;73.80
43581;DHT22;29175;51.030;4.606;2022-08-01T14:18:36;29.70;74.70
43581;DHT22;29175;51.030;4.606;2022-08-01T14:21:03;29.90;73.90
43581;DHT22;29175;51.030;4.606;2022-08-01T14:23:30;30.30;73.40
43581;DHT22;29175;51.030;4.606;2022-08-01T14:25:56;29.80;75.00
43581;DHT22;29175;51.030;4.606;2022-08-01T14:28:22;29.70;74.50
43581;DHT22;29175;51.030;4.606;2022-08-01T14:30:49;29.60;74.80
43581;DHT22;29175;51.030;4.606;2022-08-01T14:33:15;29.40;76.30
43581;DHT22;29175;51.030;4.606;2022-08-01T14:35:41;30.00;76.80
43581;DHT22;29175;51.030;4.606;2022-08-01T14:38:08;30.10;76.40
43581;DHT22;29175;51.030;4.606;2022-08-01T14:40:35;29.70;75.90
43581;DHT22;29175;51.030;4.606;2022-08-01T14:43:03;29.60;76.00
43581;DHT22;29175;51.030;4.606;2022-08-01T14:45:32;29.50;77.60
43581;DHT22;29175;51.030;4.606;2022-08-01T14:47:58;29.60;76.00
43581;DHT22;29175;51.030;4.606;2022-08-01T14:50:25;29.10;78.00
43581;DHT22;29175;51.030;4.606;2022-08-01T14:52:56;29.20;75.80
43581;DHT22;29175;51.030;4.606;2022-08-01T14:55:23;28.80;72.90
43581;DHT22;29175;51.030;4.606;2022-08-01T14:57:53;28.70;74.60
43581;DHT22;29175;51.030;4.606;2022-08-01T15:00:21;28.60;74.70
43581;DHT22;29175;51.030;4.606;2022-08-01T15:02:49;28.60;74.20
43581;DHT22;29175;51.030;4.606;2022-08-01T15:05:16;28.50;75.40
43581;DHT22;29175;51.030;4.606;2022-08-01T15:07:43;28.70;75.40
43581;DHT22;29175;51.030;4.606;2022-08-01T15:10:10;28.90;76.10
43581;DHT22;29175;51.030;4.606;2022-08-01T15:12:37;29.20;75.90
43581;DHT22;29175;51.030;4.606;2022-08-01T15:15:06;29.10;75.90
43581;DHT22;29175;51.030;4.606;2022-08-01T15:17:34;29.20;76.30
43581;DHT22;29175;51.030;4.606;2022-08-01T15:20:05;29.10;76.20
43581;DHT22;29175;51.030;4.606;2022-08-01T15:22:31;29.30;76.30
43581;DHT22;29175;51.030;4.606;2022-08-01T15:24:59;29.20;75.70
43581;DHT22;29175;51.030;4.606;2022-08-01T15:27:28;29.10;75.90
43581;DHT22;29175;51.030;4.606;2022-08-01T15:29:56;29.00;75.90
43581;DHT22;29175;51.030;4.606;2022-08-01T15:32:23;28.70;77.40
43581;DHT22;29175;51.030;4.606;2022-08-01T15:34:49;28.80;75.70
43581;DHT22;29175;51.030;4.606;2022-08-01T15:37:15;28.70;74.80
43581;DHT22;29175;51.030;4.606;2022-08-01T15:39:44;28.70;74.10
43581;DHT22;29175;51.030;4.606;2022-08-01T15:42:12;28.80;75.00
43581;DHT22;29175;51.030;4.606;2022-08-01T15:44:38;28.80;75.40
43581;DHT22;29175;51.030;4.606;2022-08-01T15:47:04;28.80;74.00
43581;DHT22;29175;51.030;4.606;2022-08-01T15:49:33;28.80;73.70
43581;DHT22;29175;51.030;4.606;2022-08-01T15:52:08;28.60;73.60
43581;DHT22;29175;51.030;4.606;2022-08-01T15:54:34;28.80;74.30
43581;DHT22;29175;51.030;4.606;2022-08-01T15:57:01;28.80;74.90
43581;DHT22;29175;51.030;4.606;2022-08-01T15:59:28;29.00;74.60
43581;DHT22;29175;51.030;4.606;2022-08-01T16:01:58;29.00;73.80
43581;DHT22;29175;51.030;4.606;2022-08-01T16:04:23;28.80;73.60
43581;DHT22;29175;51.030;4.606;2022-08-01T16:06:49;28.60;72.40
43581;DHT22;29175;51.030;4.606;2022-08-01T16:09:16;28.60;76.00
43581;DHT22;29175;51.030;4.606;2022-08-01T16:11:43;28.70;74.10
43581;DHT22;29175;51.030;4.606;2022-08-01T16:14:09;28.70;73.50
43581;DHT22;29175;51.030;4.606;2022-08-01T16:16:34;28.60;73.20
43581;DHT22;29175;51.030;4.606;2022-08-01T16:19:00;28.30;73.90
43581;DHT22;29175;51.030;4.606;2022-08-01T16:21:27;28.40;75.20
43581;DHT22;29175;51.030;4.606;2022-08-01T16:23:53;28.60;73.20
43581;DHT22;29175;51.030;4.606;2022-08-01T16:26:18;28.60;72.90
43581;DHT22;29175;51.030;4.606;2022-08-01T16:28:44;28.60;73.50
43581;DHT22;29175;51.030;4.606;2022-08-01T16:31:22;28.50;72.50
43581;DHT22;29175;51.030;4.606;2022-08-01T16:33:49;27.90;73.10
43581;DHT22;29175;51.030;4.606;2022-08-01T16:36:16;28.10;77.40
43581;DHT22;29175;51.030;4.606;2022-08-01T16:38:44;28.10;74.20
43581;DHT22;29175;51.030;4.606;2022-08-01T16:41:13;28.20;74.00
43581;DHT22;29175;51.030;4.606;2022-08-01T16:43:41;28.40;73.60